createdAt,value
2018-05-04T00:01:50.357Z,76.49
2018-05-04T00:04:16.656Z,76.00
2018-05-04T00:06:46.141Z,76.03
2018-05-04T00:09:12.401Z,76.48
2018-05-04T00:11:38.671Z,76.84
2018-05-04T00:14:08.212Z,76.76
2018-05-04T00:16:34.494Z,76.87
2018-05-04T00:19:04.071Z,77.47
2018-05-04T00:21:30.378Z,77.35
2018-05-04T00:23:56.649Z,76.84
2018-05-04T00:26:22.953Z,76.69
2018-05-04T00:28:53.259Z,77.15
2018-05-04T00:31:19.519Z,77.59
2018-05-04T00:33:45.784Z,77.76
2018-05-04T00:36:12.151Z,77.83
2018-05-04T00:38:38.407Z,77.55
2018-05-04T00:41:04.688Z,77.85
2018-05-04T00:43:34.319Z,77.26
2018-05-04T00:46:00.762Z,76.35
2018-05-04T00:48:27.042Z,77.10
2018-05-04T00:50:59.767Z,77.30
2018-05-04T00:53:26.024Z,76.89
2018-05-04T00:55:52.285Z,77.27
2018-05-04T00:58:18.670Z,78.35
2018-05-04T01:00:44.963Z,80.26
2018-05-04T01:03:11.247Z,80.99
2018-05-04T01:05:40.591Z,82.30
2018-05-04T01:08:06.864Z,82.23
2018-05-04T01:10:33.125Z,81.92
2018-05-04T01:13:02.584Z,80.63
2018-05-04T01:15:28.842Z,80.33
2018-05-04T01:17:55.112Z,79.25
2018-05-04T01:20:39.417Z,78.88
2018-05-04T01:23:05.691Z,78.80
2018-05-04T01:25:31.948Z,78.43
2018-05-04T01:28:01.465Z,79.23
2018-05-04T01:30:27.741Z,79.08
2018-05-04T01:32:53.994Z,78.50
2018-05-04T01:35:20.293Z,78.42
2018-05-04T01:37:46.554Z,79.30
2018-05-04T01:40:12.803Z,78.82
2018-05-04T01:42:45.891Z,79.20
2018-05-04T01:45:12.134Z,78.75
2018-05-04T01:47:41.491Z,78.42
2018-05-04T01:50:10.882Z,78.65
2018-05-04T01:52:37.221Z,77.98
2018-05-04T01:55:03.512Z,77.34
2018-05-04T01:57:29.805Z,77.33
2018-05-04T01:59:56.063Z,77.38
2018-05-04T02:02:22.348Z,78.20
2018-05-04T02:04:50.509Z,80.19
2018-05-04T02:07:16.767Z,81.38
2018-05-04T02:09:43.065Z,81.09
2018-05-04T02:12:12.628Z,80.58
2018-05-04T02:14:38.908Z,80.03
2018-05-04T02:17:05.158Z,79.94
2018-05-04T02:19:34.748Z,79.12
2018-05-04T02:22:01.015Z,79.78
2018-05-04T02:24:27.274Z,80.15
2018-05-04T02:26:56.757Z,80.60
2018-05-04T02:29:23.015Z,81.30
2018-05-04T02:31:49.296Z,82.31
2018-05-04T02:34:18.611Z,83.06
2018-05-04T02:36:44.879Z,82.84
2018-05-04T02:39:11.135Z,81.35
2018-05-04T02:41:40.595Z,81.47
2018-05-04T02:44:06.874Z,80.45
2018-05-04T02:46:33.131Z,80.66
2018-05-04T02:48:59.477Z,80.27
2018-05-04T02:51:25.751Z,81.06
2018-05-04T02:53:55.343Z,81.39
2018-05-04T02:56:24.710Z,80.66
2018-05-04T02:58:50.964Z,80.11
2018-05-04T03:01:17.249Z,79.97
2018-05-04T03:03:43.558Z,79.68
2018-05-04T03:06:09.845Z,79.93
2018-05-04T03:08:36.141Z,80.76
2018-05-04T03:11:02.533Z,80.34
2018-05-04T03:13:28.800Z,80.42
2018-05-04T03:15:55.071Z,79.93
2018-05-04T03:18:21.378Z,81.44
2018-05-04T03:20:47.627Z,81.96
2018-05-04T03:23:13.869Z,82.74
2018-05-04T03:25:40.154Z,82.95
2018-05-04T03:28:06.408Z,81.98
2018-05-04T03:30:32.672Z,81.49
2018-05-04T03:32:59.220Z,80.85
2018-05-04T03:35:25.461Z,81.43
2018-05-04T03:37:51.711Z,81.28
2018-05-04T03:40:21.124Z,80.48
2018-05-04T03:42:47.430Z,81.08
2018-05-04T03:45:13.699Z,81.73
2018-05-04T03:47:43.075Z,80.31
2018-05-04T03:50:09.343Z,81.16
2018-05-04T03:52:35.601Z,80.81
2018-05-04T03:55:02.086Z,80.35
2018-05-04T03:57:40.318Z,79.86
2018-05-04T04:00:21.740Z,81.37
2018-05-04T04:03:00.144Z,81.10
2018-05-04T04:05:26.442Z,80.89
2018-05-04T04:07:52.708Z,81.31
2018-05-04T04:10:19.020Z,80.66
2018-05-04T04:12:45.375Z,80.41
2018-05-04T04:15:11.641Z,80.37
2018-05-04T04:17:37.917Z,80.91
2018-05-04T04:20:04.270Z,80.17
2018-05-04T04:22:36.908Z,80.34
2018-05-04T04:25:03.195Z,80.07
2018-05-04T04:27:29.505Z,79.28
2018-05-04T04:29:55.766Z,79.75
2018-05-04T04:32:22.030Z,80.26
2018-05-04T04:34:51.618Z,79.79
2018-05-04T04:37:17.879Z,81.11
2018-05-04T04:39:44.154Z,81.91
2018-05-04T04:42:13.620Z,82.43
2018-05-04T04:44:39.861Z,81.69
2018-05-04T04:47:08.762Z,80.40
2018-05-04T04:49:38.166Z,80.50
2018-05-04T04:52:04.420Z,80.30
2018-05-04T04:54:30.909Z,80.47
2018-05-04T04:56:57.442Z,78.85
2018-05-04T04:59:23.714Z,77.22
2018-05-04T05:01:50.113Z,77.12
2018-05-04T05:04:19.568Z,77.83
2018-05-04T05:06:45.833Z,76.35
2018-05-04T05:09:12.094Z,76.58
2018-05-04T05:11:41.647Z,75.62
2018-05-04T05:14:07.930Z,74.25
2018-05-04T05:16:34.201Z,75.99
2018-05-04T05:19:03.699Z,74.58
2018-05-04T05:21:29.962Z,75.00
2018-05-04T05:23:56.230Z,74.28
2018-05-04T05:26:28.227Z,74.28
2018-05-04T05:28:54.490Z,73.32
2018-05-04T05:31:20.773Z,72.90
2018-05-04T05:33:50.299Z,73.72
2018-05-04T05:36:16.565Z,73.47
2018-05-04T05:38:42.818Z,74.24
2018-05-04T05:41:09.153Z,73.60
2018-05-04T05:43:35.594Z,72.72
2018-05-04T05:46:01.846Z,71.71
2018-05-04T05:48:31.353Z,71.96
2018-05-04T05:50:57.614Z,72.42
2018-05-04T05:53:23.887Z,70.86
2018-05-04T05:55:53.417Z,70.05
2018-05-04T05:58:20.780Z,69.03
2018-05-04T06:00:47.033Z,69.22
2018-05-04T06:03:17.231Z,68.79
2018-05-04T06:05:43.508Z,67.66
2018-05-04T06:08:09.770Z,68.23
2018-05-04T06:10:36.053Z,65.91
2018-05-04T06:13:02.362Z,65.88
2018-05-04T06:15:28.622Z,64.28
2018-05-04T06:17:58.069Z,62.84
2018-05-04T06:20:24.342Z,62.70
2018-05-04T06:22:50.596Z,62.46
2018-05-04T06:25:16.950Z,62.51
2018-05-04T06:27:43.210Z,62.33
2018-05-04T06:30:09.478Z,62.27
2018-05-04T06:32:35.771Z,61.92
2018-05-04T06:35:02.036Z,61.22
2018-05-04T06:37:28.295Z,59.05
2018-05-04T06:39:54.608Z,56.04
2018-05-04T06:42:20.886Z,54.81
2018-05-04T06:44:47.139Z,55.61
2018-05-04T06:47:13.514Z,52.60
2018-05-04T06:49:39.771Z,54.65
2018-05-04T06:52:06.034Z,53.74
2018-05-04T06:54:35.386Z,52.38
2018-05-04T06:57:01.666Z,53.29
2018-05-04T06:59:31.262Z,51.90
2018-05-04T07:02:00.634Z,51.46
2018-05-04T07:04:26.889Z,49.30
2018-05-04T07:06:53.158Z,50.41
2018-05-04T07:09:19.507Z,50.71
2018-05-04T07:11:45.778Z,51.15
2018-05-04T07:14:12.034Z,51.71
2018-05-04T07:16:38.339Z,46.26
2018-05-04T07:19:04.598Z,45.63
2018-05-04T07:21:30.866Z,40.56
2018-05-04T07:24:00.218Z,44.03
2018-05-04T07:26:26.513Z,45.71
2018-05-04T07:28:52.778Z,45.97
2018-05-04T07:31:22.223Z,45.87
2018-05-04T07:33:48.495Z,44.85
2018-05-04T07:36:14.785Z,44.90
2018-05-04T07:38:41.081Z,45.01
2018-05-04T07:41:07.347Z,44.89
2018-05-04T07:43:33.639Z,44.43
2018-05-04T07:45:59.971Z,45.53
2018-05-04T07:48:26.263Z,45.53
2018-05-04T07:50:52.532Z,44.83
2018-05-04T07:53:18.902Z,44.26
2018-05-04T07:55:45.180Z,42.77
2018-05-04T07:58:11.467Z,42.43
2018-05-04T08:00:37.866Z,43.33
2018-05-04T08:03:04.149Z,43.88
2018-05-04T08:05:30.431Z,45.10
2018-05-04T08:07:59.873Z,44.94
2018-05-04T08:10:26.127Z,43.50
2018-05-04T08:12:52.380Z,43.52
2018-05-04T08:15:21.758Z,43.18
2018-05-04T08:17:48.054Z,41.14
2018-05-04T08:20:14.307Z,40.26
2018-05-04T08:22:40.605Z,39.25
2018-05-04T08:25:06.859Z,39.97
2018-05-04T08:27:33.137Z,39.37
2018-05-04T08:29:59.473Z,40.63
2018-05-04T08:32:25.725Z,40.09
2018-05-04T08:34:52.021Z,36.41
2018-05-04T08:37:18.354Z,38.94
2018-05-04T08:39:44.699Z,36.69
2018-05-04T08:42:10.947Z,35.52
2018-05-04T08:44:40.374Z,36.98
2018-05-04T08:47:06.631Z,36.35
2018-05-04T08:49:32.947Z,34.10
2018-05-04T08:51:59.780Z,35.97
2018-05-04T08:54:26.086Z,32.74
2018-05-04T08:56:52.365Z,34.19
2018-05-04T08:59:18.718Z,32.60
2018-05-04T09:01:51.079Z,31.09
2018-05-04T09:04:17.383Z,33.00
2018-05-04T09:06:43.691Z,36.07
2018-05-04T09:09:09.964Z,31.33
2018-05-04T09:11:36.259Z,33.04
2018-05-04T09:14:05.792Z,34.60
2018-05-04T09:16:32.086Z,33.67
2018-05-04T09:18:58.371Z,32.44
2018-05-04T09:21:25.625Z,32.68
2018-05-04T09:23:51.887Z,26.99
2018-05-04T09:26:18.165Z,29.15
2018-05-04T09:28:44.454Z,27.67
2018-05-04T09:31:10.731Z,27.09
2018-05-04T09:33:36.987Z,27.72
2018-05-04T09:36:03.291Z,29.31
2018-05-04T09:38:29.546Z,26.48
2018-05-04T09:40:55.811Z,26.82
2018-05-04T09:43:25.247Z,27.99
2018-05-04T09:45:52.047Z,27.49
2018-05-04T09:48:18.347Z,27.37
2018-05-04T09:50:44.631Z,26.09
2018-05-04T09:53:10.888Z,26.36
2018-05-04T09:55:37.219Z,26.31
2018-05-04T09:58:03.547Z,25.14
2018-05-04T10:00:29.958Z,26.27
2018-05-04T10:02:56.329Z,23.87
2018-05-04T10:05:25.898Z,24.27
2018-05-04T10:07:52.152Z,25.55
2018-05-04T10:10:18.433Z,26.72
2018-05-04T10:12:47.949Z,25.11
2018-05-04T10:15:14.245Z,24.75
2018-05-04T10:17:40.541Z,24.33
2018-05-04T10:20:06.888Z,24.37
2018-05-04T10:22:33.152Z,24.95
2018-05-04T10:24:59.411Z,26.37
2018-05-04T10:27:29.325Z,25.81
2018-05-04T10:29:55.587Z,23.89
2018-05-04T10:32:21.889Z,24.93
2018-05-04T10:34:48.195Z,24.57
2018-05-04T10:37:14.531Z,25.43
2018-05-04T10:39:40.806Z,25.84
2018-05-04T10:42:10.192Z,24.08
2018-05-04T10:44:36.472Z,24.36
2018-05-04T10:47:02.803Z,22.13
2018-05-04T10:49:29.187Z,23.10
2018-05-04T10:51:55.534Z,22.00
2018-05-04T10:54:21.854Z,22.74
2018-05-04T10:56:48.227Z,24.94
2018-05-04T10:59:14.556Z,23.70
2018-05-04T11:01:40.844Z,24.23
2018-05-04T11:04:07.277Z,22.55
2018-05-04T11:06:33.559Z,23.86
2018-05-04T11:08:59.825Z,22.57
2018-05-04T11:11:29.444Z,22.66
2018-05-04T11:13:55.744Z,22.14
2018-05-04T11:16:22.023Z,23.87
2018-05-04T11:18:51.521Z,23.99
2018-05-04T11:21:17.803Z,22.32
2018-05-04T11:23:44.065Z,22.62
2018-05-04T11:26:13.558Z,21.32
2018-05-04T11:28:39.832Z,20.79
2018-05-04T11:31:06.103Z,21.33
2018-05-04T11:33:32.458Z,22.10
2018-05-04T11:35:58.761Z,21.97
2018-05-04T11:38:25.129Z,22.32
2018-05-04T11:40:54.621Z,21.88
2018-05-04T11:43:20.917Z,23.38
2018-05-04T11:45:47.192Z,23.69
2018-05-04T11:48:13.495Z,22.87
2018-05-04T11:50:39.794Z,23.60
2018-05-04T11:53:06.084Z,22.68
2018-05-04T11:55:35.683Z,23.54
2018-05-04T11:58:01.964Z,21.58
2018-05-04T12:00:28.241Z,22.49
2018-05-04T12:02:57.717Z,20.22
2018-05-04T12:05:24.478Z,21.76
2018-05-04T12:07:50.740Z,20.88
2018-05-04T12:10:23.095Z,23.16
2018-05-04T12:12:55.432Z,22.48
2018-05-04T12:15:21.757Z,23.46
2018-05-04T12:17:48.104Z,23.69
2018-05-04T12:20:14.359Z,24.10
2018-05-04T12:22:40.643Z,24.25
2018-05-04T12:25:09.986Z,24.60
2018-05-04T12:27:36.259Z,22.97
2018-05-04T12:30:02.571Z,23.61
2018-05-04T12:32:28.934Z,24.36
2018-05-04T12:34:55.208Z,24.62
2018-05-04T12:37:21.485Z,24.62
2018-05-04T12:39:51.153Z,24.09
2018-05-04T12:42:17.452Z,23.27
2018-05-04T12:44:43.727Z,24.10
2018-05-04T12:47:13.205Z,23.84
2018-05-04T12:49:39.480Z,23.51
2018-05-04T12:52:05.818Z,23.86
2018-05-04T12:54:35.171Z,21.10
2018-05-04T12:57:01.514Z,21.12
2018-05-04T12:59:27.770Z,21.61
2018-05-04T13:01:54.145Z,22.36
2018-05-04T13:04:20.529Z,21.77
2018-05-04T13:06:46.843Z,22.57
2018-05-04T13:09:13.149Z,21.75
2018-05-04T13:11:39.442Z,22.68
2018-05-04T13:14:05.796Z,23.50
2018-05-04T13:16:35.149Z,23.51
2018-05-04T13:19:01.462Z,23.48
2018-05-04T13:21:27.739Z,24.03
2018-05-04T13:23:54.086Z,22.79
2018-05-04T13:26:20.392Z,25.61
2018-05-04T13:28:46.941Z,24.41
2018-05-04T13:31:13.266Z,27.48
2018-05-04T13:33:39.522Z,29.21
2018-05-04T13:36:05.794Z,32.14
2018-05-04T13:38:35.381Z,33.24
2018-05-04T13:41:01.643Z,34.27
2018-05-04T13:43:31.096Z,35.11
2018-05-04T13:46:00.587Z,34.24
2018-05-04T13:48:26.842Z,34.41
2018-05-04T13:50:53.263Z,34.56
2018-05-04T13:53:22.895Z,35.05
2018-05-04T13:55:49.171Z,35.43
2018-05-04T13:58:18.634Z,35.61
2018-05-04T14:00:44.944Z,36.32
2018-05-04T14:03:14.288Z,35.03
2018-05-04T14:05:40.672Z,34.74
2018-05-04T14:08:10.382Z,35.58
2018-05-04T14:10:36.643Z,33.47
2018-05-04T14:13:02.967Z,34.53
2018-05-04T14:15:32.462Z,35.99
2018-05-04T14:17:58.848Z,37.65
2018-05-04T14:20:25.115Z,39.02
2018-05-04T14:22:51.429Z,39.49
2018-05-04T14:25:17.703Z,39.12
2018-05-04T14:27:44.065Z,39.83
2018-05-04T14:30:13.540Z,40.04
2018-05-04T14:32:39.820Z,40.17
2018-05-04T14:35:06.091Z,38.57
2018-05-04T14:37:32.415Z,38.13
2018-05-04T14:39:58.710Z,37.23
2018-05-04T14:42:25.074Z,38.20
2018-05-04T14:44:51.390Z,37.51
2018-05-04T14:47:17.675Z,38.24
2018-05-04T14:49:44.323Z,38.38
2018-05-04T14:52:10.752Z,38.00
2018-05-04T14:54:37.125Z,37.80
2018-05-04T14:57:03.436Z,37.14
2018-05-04T14:59:32.880Z,36.34
2018-05-04T15:01:59.154Z,34.96
2018-05-04T15:04:25.419Z,34.31
2018-05-04T15:06:51.751Z,33.72
2018-05-04T15:09:19.202Z,33.12
2018-05-04T15:11:45.482Z,33.94
2018-05-04T15:14:14.941Z,36.27
2018-05-04T15:16:41.265Z,37.40
2018-05-04T15:19:07.527Z,39.99
2018-05-04T15:21:36.931Z,39.72
2018-05-04T15:24:03.196Z,39.79
2018-05-04T15:26:29.459Z,40.72
2018-05-04T15:28:58.397Z,40.75
2018-05-04T15:31:24.692Z,40.03
2018-05-04T15:33:50.958Z,40.80
2018-05-04T15:36:20.452Z,41.35
2018-05-04T15:38:46.754Z,43.51
2018-05-04T15:41:16.213Z,45.48
2018-05-04T15:43:45.898Z,45.60
2018-05-04T15:46:15.372Z,45.39
2018-05-04T15:48:47.785Z,45.73
2018-05-04T15:51:20.074Z,45.16
2018-05-04T15:53:46.449Z,44.12
2018-05-04T15:56:12.940Z,44.34
2018-05-04T15:58:39.198Z,44.39
2018-05-04T16:01:05.460Z,45.47
2018-05-04T16:03:34.810Z,44.86
2018-05-04T16:06:01.199Z,45.01
2018-05-04T16:08:29.992Z,44.15
2018-05-04T16:10:59.552Z,44.38
2018-05-04T16:13:25.829Z,44.52
2018-05-04T16:15:52.092Z,44.98
2018-05-04T16:18:18.450Z,44.91
2018-05-04T16:20:44.703Z,45.62
2018-05-04T16:23:10.990Z,45.82
2018-05-04T16:25:40.680Z,45.43
2018-05-04T16:28:06.938Z,45.94
2018-05-04T16:30:36.356Z,45.38
2018-05-04T16:33:02.708Z,45.58
2018-05-04T16:35:28.961Z,44.41
2018-05-04T16:37:55.235Z,44.68
2018-05-04T16:40:21.720Z,44.14
2018-05-04T16:42:47.982Z,44.85
2018-05-04T16:45:14.255Z,45.19
2018-05-04T16:47:49.648Z,45.25
2018-05-04T16:50:15.914Z,45.03
2018-05-04T16:52:42.197Z,44.98
2018-05-04T16:55:08.513Z,44.95
2018-05-04T16:57:34.829Z,45.62
2018-05-04T17:00:01.202Z,46.55
2018-05-04T17:02:30.693Z,46.92
2018-05-04T17:04:56.958Z,47.46
2018-05-04T17:07:23.265Z,47.72
2018-05-04T17:09:49.650Z,47.79
2018-05-04T17:12:22.394Z,48.05
2018-05-04T17:14:48.711Z,48.20
2018-05-04T17:17:15.075Z,47.96
2018-05-04T17:19:41.383Z,48.26
2018-05-04T17:22:07.732Z,48.29
2018-05-04T17:24:37.187Z,48.67
2018-05-04T17:27:03.469Z,49.01
2018-05-04T17:29:29.763Z,49.38
2018-05-04T17:31:59.309Z,49.12
2018-05-04T17:34:32.111Z,49.44
2018-05-04T17:36:58.419Z,50.10
2018-05-04T17:39:31.050Z,52.12
2018-05-04T17:41:57.376Z,53.02
2018-05-04T17:44:23.642Z,53.76
2018-05-04T17:46:53.195Z,54.43
2018-05-04T17:49:19.548Z,54.14
2018-05-04T17:51:45.851Z,54.13
2018-05-04T17:54:12.171Z,55.21
2018-05-04T17:56:40.371Z,54.87
2018-05-04T17:59:07.543Z,55.32
2018-05-04T18:20:37.184Z,59.10
2018-05-04T18:23:07.763Z,60.09
2018-05-04T18:25:34.971Z,62.66
2018-05-04T18:28:03.193Z,63.25
2018-05-04T18:30:30.997Z,63.26
2018-05-04T18:32:57.817Z,62.61
2018-05-04T18:35:27.949Z,63.54
2018-05-04T18:37:57.179Z,63.75
2018-05-04T18:40:23.709Z,64.51
2018-05-04T18:42:54.088Z,64.80
2018-05-04T18:45:20.859Z,65.03
2018-05-04T18:47:50.537Z,65.56
2018-05-04T18:50:20.653Z,64.67
2018-05-04T18:52:48.330Z,65.34
2018-05-04T18:55:16.504Z,66.29
2018-05-04T18:57:47.944Z,66.63
2018-05-04T19:00:16.377Z,67.82
2018-05-04T19:02:55.638Z,68.56
2018-05-04T19:05:27.470Z,68.46
2018-05-04T19:07:59.631Z,68.17
2018-05-04T19:10:29.005Z,67.93
2018-05-04T19:12:59.320Z,67.75
2018-05-04T19:15:29.603Z,66.54
2018-05-04T19:17:57.380Z,66.88
2018-05-04T19:20:25.868Z,67.38
2018-05-04T19:22:52.530Z,67.34
2018-05-04T19:25:18.810Z,67.54
2018-05-04T19:27:48.403Z,67.87
2018-05-04T19:30:18.204Z,68.74
2018-05-04T19:32:47.725Z,70.30
2018-05-04T19:35:17.563Z,71.18
2018-05-04T19:37:50.210Z,71.66
2018-05-04T19:40:16.590Z,71.65
2018-05-04T19:42:42.900Z,72.33
2018-05-04T19:45:12.490Z,71.70
2018-05-04T19:47:38.791Z,71.09
2018-05-04T19:50:11.227Z,70.96
2018-05-04T19:52:37.941Z,71.37
2018-05-04T19:55:08.128Z,71.33
2018-05-04T19:57:43.236Z,71.69
2018-05-04T20:00:15.800Z,71.69
2018-05-04T20:02:46.883Z,71.70
2018-05-04T20:05:21.310Z,71.72
2018-05-04T20:07:49.595Z,71.00
2018-05-04T20:10:22.176Z,70.82
2018-05-04T20:12:57.774Z,70.79
2018-05-04T20:15:35.371Z,71.13
2018-05-04T20:18:15.415Z,71.13
2018-05-04T20:20:51.637Z,70.81
2018-05-04T20:23:31.979Z,71.23
2018-05-04T20:26:08.712Z,71.43
2018-05-04T20:28:50.179Z,71.83
2018-05-04T20:31:24.262Z,71.80
2018-05-04T20:34:01.619Z,71.15
2018-05-04T20:36:37.628Z,71.27
2018-05-04T20:39:19.040Z,71.12
2018-05-04T20:41:51.932Z,70.34
2018-05-04T20:44:28.572Z,70.18
2018-05-04T20:47:05.416Z,70.70
2018-05-04T20:49:43.265Z,70.29
2018-05-04T20:52:16.865Z,70.08
2018-05-04T20:54:55.915Z,70.86
2018-05-04T20:57:32.300Z,70.60
2018-05-04T21:00:13.466Z,70.98
2018-05-04T21:02:47.593Z,71.17
2018-05-04T21:05:21.413Z,71.29
2018-05-04T21:07:58.304Z,71.39
2018-05-04T21:10:41.102Z,71.18
2018-05-04T21:13:18.740Z,71.56
2018-05-04T21:15:57.318Z,71.03
2018-05-04T21:18:45.249Z,70.49
2018-05-04T21:21:29.441Z,72.01
2018-05-04T21:24:05.575Z,73.87
2018-05-04T21:26:45.136Z,73.95
2018-05-04T21:29:18.952Z,74.94
2018-05-04T21:31:56.195Z,74.85
2018-05-04T21:34:33.745Z,74.06
2018-05-04T21:37:16.162Z,74.40
2018-05-04T21:39:51.069Z,73.65
2018-05-04T21:42:30.599Z,73.61
2018-05-04T21:45:09.071Z,72.90
2018-05-04T21:47:47.447Z,73.00
2018-05-04T21:50:23.057Z,74.03
2018-05-04T21:53:00.993Z,74.13
2018-05-04T21:55:34.659Z,74.83
2018-05-04T21:58:11.768Z,74.80
2018-05-04T22:00:50.694Z,75.97
2018-05-04T22:03:31.464Z,76.92
2018-05-04T22:06:07.419Z,77.27
2018-05-04T22:08:45.593Z,77.62
2018-05-04T22:11:20.414Z,77.39
2018-05-04T22:13:58.150Z,77.02
2018-05-04T22:16:34.189Z,76.92
2018-05-04T22:19:10.171Z,77.95
2018-05-04T22:21:46.010Z,77.93
2018-05-04T22:24:26.051Z,76.99
2018-05-04T22:27:00.161Z,76.80
2018-05-04T22:29:33.635Z,76.33
2018-05-04T22:32:15.294Z,77.32
2018-05-04T22:34:49.168Z,77.19
2018-05-04T22:37:21.534Z,77.97
2018-05-04T22:39:57.165Z,78.16
2018-05-04T22:42:29.574Z,79.50
2018-05-04T22:45:01.857Z,79.37
2018-05-04T22:47:37.617Z,78.69
2018-05-04T22:50:13.217Z,77.51
2018-05-04T22:52:45.690Z,76.23
2018-05-04T22:55:18.133Z,76.02
2018-05-04T22:57:50.343Z,75.29
2018-05-04T23:00:26.074Z,75.25
2018-05-04T23:02:58.492Z,75.28
2018-05-04T23:05:30.904Z,75.01
2018-05-04T23:08:03.274Z,74.22
2018-05-04T23:10:35.923Z,74.45
2018-05-04T23:13:08.279Z,74.56
2018-05-04T23:15:43.702Z,75.01
2018-05-04T23:18:16.022Z,76.61
2018-05-04T23:20:51.569Z,77.09
2018-05-04T23:23:23.854Z,77.27
2018-05-04T23:26:02.707Z,76.58
2018-05-04T23:28:35.109Z,76.67
2018-05-04T23:31:10.483Z,77.87
2018-05-04T23:33:42.850Z,77.49
2018-05-04T23:36:15.202Z,78.97
2018-05-04T23:38:47.592Z,80.42
2018-05-04T23:41:24.636Z,80.22
2018-05-04T23:43:57.108Z,79.96
2018-05-04T23:46:32.755Z,79.12
2018-05-04T23:49:08.471Z,78.31
2018-05-04T23:51:43.961Z,77.94
2018-05-04T23:54:16.386Z,77.34
2018-05-04T23:56:48.877Z,76.35
2018-05-04T23:59:21.163Z,76.00
